Time;durP1;ratioP1;P1;durP2;ratioP2;P2;SDS_P1;SDS_P2;PMS_P1;PMS_P2;Temp;Humidity;BMP_temperature;BMP_pressure;BME280_temperature;BME280_humidity;BME280_pressure;Samples;Min_cycle;Max_cycle;Signal;HPM_P1;HPM_P2
2021/08/08 00:00:18;;;;;;;;;0.50;0.50;;;;;16.74;63.74;100530.56;6088868;23;45311;-76
2021/08/08 00:02:44;;;;;;;;;0.00;0.00;;;;;16.68;63.53;100534.19;6088954;23;45568;-75
2021/08/08 00:05:11;;;;;;;;;0.00;0.00;;;;;16.65;63.44;100529.88;6089011;23;45368;-75
2021/08/08 00:07:37;;;;;;;;;1.00;1.00;;;;;16.66;63.54;100534.22;6088149;23;46476;-75
2021/08/08 00:10:05;;;;;;;;;0.00;0.00;;;;;16.67;63.77;100542.97;6088341;23;45313;-75
2021/08/08 00:12:30;;;;;;;;;0.00;0.00;;;;;16.68;63.70;100545.56;6088447;23;45409;-74
2021/08/08 00:14:55;;;;;;;;;0.00;0.00;;;;;16.67;63.76;100548.22;6088837;23;45395;-76
2021/08/08 00:17:21;;;;;;;;;0.00;0.00;;;;;16.64;63.98;100549.16;6088728;23;46323;-77
2021/08/08 00:19:46;;;;;;;;;0.00;0.00;;;;;16.44;64.10;100521.50;6088951;23;45229;-77
2021/08/08 00:22:11;;;;;;;;;0.00;0.00;;;;;16.63;64.20;100557.91;6088823;23;45351;-75
2021/08/08 00:24:37;;;;;;;;;0.00;0.00;;;;;16.61;64.28;100557.09;6088463;23;45266;-77
2021/08/08 00:27:02;;;;;;;;;0.00;0.00;;;;;16.52;64.34;100541.50;6088096;23;60936;-76
2021/08/08 00:29:27;;;;;;;;;0.00;0.00;;;;;16.57;64.46;100555.44;6089000;23;45195;-76
2021/08/08 00:31:53;;;;;;;;;0.00;0.00;;;;;16.52;64.99;100549.38;6086265;23;56034;-77
2021/08/08 00:34:18;;;;;;;;;0.00;0.00;;;;;16.53;65.10;100557.25;6089190;23;45484;-77
2021/08/08 00:36:43;;;;;;;;;0.00;0.00;;;;;16.51;65.05;100563.44;6088754;23;46042;-77
2021/08/08 00:39:09;;;;;;;;;0.00;0.00;;;;;16.50;65.23;100567.81;6088419;23;45402;-76
2021/08/08 00:41:34;;;;;;;;;0.00;0.00;;;;;16.31;65.05;100525.25;6088841;23;45694;-76
2021/08/08 00:44:00;;;;;;;;;0.00;0.00;;;;;16.40;64.78;100539.97;6088955;23;45286;-76
2021/08/08 00:46:25;;;;;;;;;0.00;0.00;;;;;16.48;64.95;100555.59;6088654;23;45333;-77
2021/08/08 00:48:51;;;;;;;;;0.00;0.00;;;;;16.46;65.60;100553.00;6088789;23;45234;-76
2021/08/08 00:51:16;;;;;;;;;0.00;0.00;;;;;16.35;65.40;100540.06;6088221;23;45382;-76
2021/08/08 00:53:41;;;;;;;;;0.00;0.00;;;;;16.38;65.48;100557.56;6089361;23;45302;-77
2021/08/08 00:56:07;;;;;;;;;0.00;0.00;;;;;16.32;65.37;100553.25;6088567;23;46630;-76
2021/08/08 00:58:32;;;;;;;;;0.00;0.00;;;;;16.36;65.88;100559.31;6088609;23;45262;-76
2021/08/08 01:01:01;;;;;;;;;0.00;0.00;;;;;16.36;65.91;100559.31;6088688;23;45720;-76
2021/08/08 01:03:27;;;;;;;;;0.00;0.00;;;;;16.27;65.52;100552.47;6089162;23;45358;-77
2021/08/08 01:06:04;;;;;;;;;0.00;0.00;;;;;16.24;65.62;100545.53;6088326;23;45317;-77
2021/08/08 01:08:30;;;;;;;;;0.00;0.00;;;;;16.40;65.74;100569.75;6087018;23;45290;-77
2021/08/08 01:10:56;;;;;;;;;1.00;0.00;;;;;16.40;66.03;100563.63;6088448;23;45242;-76
2021/08/08 01:13:22;;;;;;;;;0.00;0.00;;;;;16.13;65.56;100536.97;6087947;23;45371;-77
2021/08/08 01:15:49;;;;;;;;;0.00;0.00;;;;;16.29;65.99;100564.69;6088703;23;45301;-78
2021/08/08 01:18:15;;;;;;;;;0.00;0.00;;;;;16.29;66.13;100566.47;6088173;23;45786;-77
2021/08/08 01:20:44;;;;;;;;;0.00;0.00;;;;;16.15;66.16;100545.69;6088477;23;45315;-77
2021/08/08 01:23:13;;;;;;;;;0.00;0.00;;;;;16.14;65.97;100536.94;6087218;23;45451;-76
2021/08/08 01:25:39;;;;;;;;;0.00;0.00;;;;;16.17;65.89;100546.53;6088337;23;45381;-77
2021/08/08 01:28:05;;;;;;;;;0.50;0.00;;;;;16.04;66.24;100538.88;6088417;23;45306;-78
2021/08/08 01:30:30;;;;;;;;;0.00;0.00;;;;;16.11;66.47;100549.25;6086802;23;45393;-77
2021/08/08 01:33:08;;;;;;;;;0.50;0.00;;;;;16.16;66.65;100564.03;6086987;23;45399;-76
2021/08/08 01:35:34;;;;;;;;;0.25;0.00;;;;;15.96;66.38;100525.88;6088274;23;45950;-76
2021/08/08 01:38:00;;;;;;;;;0.00;0.00;;;;;16.09;66.63;100551.91;6090086;23;45364;-76
2021/08/08 01:40:36;;;;;;;;;1.00;0.50;;;;;15.98;66.50;100543.38;6090237;23;45294;-77
2021/08/08 01:43:06;;;;;;;;;0.00;0.00;;;;;16.15;66.89;100571.94;6090124;23;45238;-76
2021/08/08 01:45:34;;;;;;;;;0.00;0.00;;;;;16.09;66.20;100560.63;6089984;23;45644;-76
2021/08/08 01:48:02;;;;;;;;;0.00;0.00;;;;;16.18;66.47;100567.53;6090297;23;45221;-76
2021/08/08 01:50:31;;;;;;;;;0.00;0.00;;;;;16.11;66.67;100554.53;6088003;23;45309;-76
2021/08/08 01:52:58;;;;;;;;;0.00;0.00;;;;;16.29;66.26;100582.22;6090053;23;45450;-77
2021/08/08 01:55:24;;;;;;;;;0.00;0.00;;;;;16.25;66.43;100562.13;6089852;23;45355;-76
2021/08/08 01:57:50;;;;;;;;;0.00;0.00;;;;;16.36;66.57;100577.72;6089666;23;45606;-76
2021/08/08 02:00:19;;;;;;;;;0.00;0.00;;;;;16.18;66.25;100545.63;6090197;23;45392;-77
2021/08/08 02:02:56;;;;;;;;;0.00;0.00;;;;;16.32;66.79;100562.00;6090549;23;45308;-78
2021/08/08 02:05:23;;;;;;;;;0.25;0.25;;;;;16.30;66.90;100573.44;6089058;23;45979;-76
2021/08/08 02:07:49;;;;;;;;;0.00;0.00;;;;;16.22;66.73;100557.81;6088960;23;45419;-74
2021/08/08 02:10:15;;;;;;;;;0.00;0.00;;;;;16.32;66.81;100580.38;6087254;23;45325;-74
2021/08/08 02:12:41;;;;;;;;;0.00;0.00;;;;;16.23;67.02;100563.94;6086475;23;45526;-76
2021/08/08 02:15:09;;;;;;;;;0.00;0.00;;;;;16.18;66.73;100557.03;6088917;23;45590;-74
2021/08/08 02:17:35;;;;;;;;;0.00;0.00;;;;;16.17;66.62;100555.25;6089734;23;45257;-75
2021/08/08 02:20:00;;;;;;;;;0.00;0.00;;;;;16.15;67.17;100559.69;6088653;23;45452;-74
2021/08/08 02:22:25;;;;;;;;;2.00;2.00;;;;;16.19;67.06;100573.63;6088968;23;48557;-74
2021/08/08 02:24:50;;;;;;;;;0.00;0.00;;;;;16.19;66.96;100581.50;6089425;23;52064;-74
2021/08/08 02:27:16;;;;;;;;;0.00;0.00;;;;;16.13;67.11;100578.97;6088603;23;45351;-75
2021/08/08 02:29:41;;;;;;;;;0.00;0.00;;;;;16.19;67.21;100594.63;6089291;23;45335;-75
2021/08/08 02:32:06;;;;;;;;;0.25;0.25;;;;;16.20;67.32;100591.09;6089948;23;45366;-75
2021/08/08 02:34:32;;;;;;;;;0.00;0.00;;;;;16.03;67.08;100571.28;6086799;23;54886;-74
2021/08/08 02:36:57;;;;;;;;;0.00;0.00;;;;;16.14;67.47;100593.84;6087991;23;45415;-75
2021/08/08 02:39:22;;;;;;;;;0.00;0.00;;;;;15.98;67.63;100573.09;6085758;23;55771;-75
2021/08/08 02:41:48;;;;;;;;;0.00;0.00;;;;;16.07;67.17;100587.81;6089559;23;45250;-74
2021/08/08 02:44:13;;;;;;;;;1.00;0.00;;;;;16.16;67.10;100597.31;6089510;23;46046;-75
2021/08/08 02:46:38;;;;;;;;;0.00;0.00;;;;;16.09;67.52;100592.16;6088931;23;45304;-74
2021/08/08 02:49:04;;;;;;;;;0.00;0.00;;;;;16.12;67.21;100593.88;6088712;23;45285;-74
2021/08/08 02:51:29;;;;;;;;;0.25;0.00;;;;;16.13;67.43;100592.97;6087503;23;45397;-75
2021/08/08 02:53:54;;;;;;;;;0.00;0.00;;;;;16.09;67.39;100594.78;6089406;23;45292;-75
2021/08/08 02:56:20;;;;;;;;;0.00;0.00;;;;;16.06;67.45;100597.47;6089696;23;45341;-74
2021/08/08 02:58:45;;;;;;;;;0.00;0.00;;;;;16.07;67.06;100598.31;6089323;23;45209;-75
2021/08/08 03:01:11;;;;;;;;;0.00;0.00;;;;;16.00;67.35;100604.56;6089225;23;45163;-75
2021/08/08 03:03:37;;;;;;;;;0.00;0.00;;;;;15.88;67.81;100590.72;6088884;23;45861;-75
2021/08/08 03:06:08;;;;;;;;;0.00;0.00;;;;;15.96;68.04;100609.03;6088994;23;45457;-75
2021/08/08 03:08:33;;;;;;;;;0.00;0.00;;;;;15.81;67.54;100595.19;6089559;23;45195;-75
2021/08/08 03:10:58;;;;;;;;;0.00;0.00;;;;;15.86;68.18;100616.13;6089547;23;45245;-76
2021/08/08 03:13:24;;;;;;;;;0.00;0.00;;;;;15.74;68.17;100604.03;6087877;23;67560;-75
2021/08/08 03:15:49;;;;;;;;;0.00;0.00;;;;;15.83;68.14;100619.66;6087009;23;57108;-75
2021/08/08 03:18:14;;;;;;;;;0.25;0.25;;;;;15.77;67.88;100597.91;6088284;23;58382;-75
2021/08/08 03:20:40;;;;;;;;;0.00;0.00;;;;;15.84;68.23;100615.28;6089226;23;49882;-75
2021/08/08 03:23:05;;;;;;;;;0.00;0.00;;;;;15.73;68.20;100611.94;6089378;23;46130;-75
2021/08/08 03:25:30;;;;;;;;;0.00;0.00;;;;;15.75;68.46;100618.03;6089055;23;45317;-75
2021/08/08 03:27:56;;;;;;;;;0.00;0.00;;;;;15.64;69.01;100624.31;6089338;23;45389;-75
2021/08/08 03:30:21;;;;;;;;;0.00;0.00;;;;;15.64;68.71;100624.31;6089299;23;45472;-75
2021/08/08 03:32:46;;;;;;;;;0.00;0.00;;;;;15.57;68.71;100604.31;6088494;23;45225;-75
2021/08/08 03:35:12;;;;;;;;;0.00;0.00;;;;;15.59;68.72;100615.63;6087538;23;45331;-75
2021/08/08 03:37:37;;;;;;;;;0.00;0.00;;;;;15.63;69.02;100630.47;6089242;23;45273;-75
2021/08/08 03:40:03;;;;;;;;;1.00;0.00;;;;;15.60;68.87;100634.88;6089691;23;45248;-75
2021/08/08 03:42:29;;;;;;;;;0.00;0.00;;;;;15.47;68.81;100616.69;6088648;23;46032;-75
2021/08/08 03:44:54;;;;;;;;;0.00;0.00;;;;;15.57;69.04;100639.28;6086979;23;45302;-75
2021/08/08 03:47:20;;;;;;;;;0.00;0.00;;;;;15.56;68.91;100637.53;6088787;23;45293;-75
2021/08/08 03:49:45;;;;;;;;;0.00;0.00;;;;;15.57;68.90;100641.03;6089469;23;45344;-75
2021/08/08 03:52:11;;;;;;;;;0.00;0.00;;;;;15.50;69.02;100648.09;6088795;23;45977;-75
2021/08/08 03:54:36;;;;;;;;;0.00;0.00;;;;;15.38;69.16;100640.41;6086162;23;60841;-76
2021/08/08 03:57:02;;;;;;;;;0.00;0.00;;;;;15.37;69.12;100631.66;6089186;23;45955;-75
2021/08/08 03:59:27;;;;;;;;;0.00;0.00;;;;;15.44;69.30;100635.09;6087601;23;45291;-75
2021/08/08 04:01:52;;;;;;;;;0.00;0.00;;;;;15.36;69.50;100639.56;6087042;23;61943;-75
2021/08/08 04:04:17;;;;;;;;;0.00;0.00;;;;;15.33;69.44;100643.09;6088692;23;45369;-75
2021/08/08 04:06:43;;;;;;;;;0.00;0.00;;;;;15.23;69.30;100629.25;6086741;23;45271;-75
2021/08/08 04:09:08;;;;;;;;;0.00;0.00;;;;;15.17;69.77;100619.69;6089085;23;45322;-74
2021/08/08 04:11:33;;;;;;;;;0.00;0.00;;;;;15.16;69.49;100625.81;6088482;23;52685;-75
2021/08/08 04:13:59;;;;;;;;;0.00;0.00;;;;;15.26;69.77;100647.56;6086477;23;45496;-75
2021/08/08 04:16:24;;;;;;;;;0.00;0.00;;;;;15.31;69.69;100652.72;6088333;23;45272;-75
2021/08/08 04:18:49;;;;;;;;;0.75;0.00;;;;;15.31;69.71;100666.72;6088030;23;47466;-75
2021/08/08 04:21:14;;;;;;;;;0.00;0.00;;;;;15.28;69.25;100652.78;6084406;23;63628;-75
2021/08/08 04:23:40;;;;;;;;;0.00;0.00;;;;;15.40;69.14;100659.59;6085001;23;50832;-75
2021/08/08 04:26:05;;;;;;;;;0.00;0.00;;;;;15.42;69.24;100666.59;6085804;23;46313;-75
2021/08/08 04:28:31;;;;;;;;;0.00;0.00;;;;;15.35;69.54;100648.31;6086705;23;45349;-75
2021/08/08 04:30:56;;;;;;;;;0.00;0.00;;;;;15.41;69.21;100670.09;6087937;23;45353;-75
2021/08/08 04:33:21;;;;;;;;;0.00;0.00;;;;;15.36;69.14;100658.78;6088423;23;45202;-74
2021/08/08 04:35:47;;;;;;;;;0.00;0.00;;;;;15.45;69.25;100673.56;6088568;23;45281;-75
2021/08/08 04:38:12;;;;;;;;;0.00;0.00;;;;;15.37;69.36;100664.91;6088979;23;45369;-74
2021/08/08 04:40:37;;;;;;;;;0.50;0.00;;;;;15.34;68.82;100663.19;6087427;23;46130;-74
2021/08/08 04:43:05;;;;;;;;;0.00;0.00;;;;;15.49;68.96;100672.63;6088558;23;45423;-74
2021/08/08 04:45:31;;;;;;;;;0.00;0.00;;;;;15.54;68.70;100675.19;6086188;23;45389;-75
2021/08/08 04:47:56;;;;;;;;;0.00;0.00;;;;;15.56;68.75;100676.88;6088722;23;45397;-75
2021/08/08 04:50:22;;;;;;;;;0.00;0.00;;;;;15.61;68.43;100674.22;6088068;23;46124;-74
2021/08/08 04:52:48;;;;;;;;;0.00;0.00;;;;;15.52;67.91;100671.69;6088500;23;45236;-75
2021/08/08 04:55:14;;;;;;;;;0.00;0.00;;;;;15.45;67.74;100679.66;6088465;23;45346;-74
2021/08/08 04:57:39;;;;;;;;;0.00;0.00;;;;;15.43;67.82;100678.81;6088650;23;45256;-74
2021/08/08 05:00:06;;;;;;;;;0.00;0.00;;;;;15.29;67.93;100662.38;6087300;23;45941;-75
2021/08/08 05:02:33;;;;;;;;;0.50;0.00;;;;;15.23;68.02;100670.31;6085857;23;45350;-74
2021/08/08 05:04:58;;;;;;;;;0.00;0.00;;;;;15.35;67.46;100685.91;6088328;23;45304;-76
2021/08/08 05:07:24;;;;;;;;;0.00;0.00;;;;;15.26;67.61;100665.03;6088166;23;45379;-76
2021/08/08 05:09:49;;;;;;;;;0.00;0.00;;;;;15.23;67.45;100665.94;6087836;23;59366;-76
2021/08/08 05:12:14;;;;;;;;;0.00;0.00;;;;;15.38;67.65;100688.50;6087604;23;45431;-76
2021/08/08 05:14:40;;;;;;;;;0.00;0.00;;;;;15.05;67.93;100643.44;6090093;23;45286;-76
2021/08/08 05:17:06;;;;;;;;;0.00;0.00;;;;;15.38;67.53;100692.88;6090829;23;45330;-76
2021/08/08 05:19:32;;;;;;;;;0.00;0.00;;;;;15.37;67.32;100678.03;6088355;23;47392;-76
2021/08/08 05:21:57;;;;;;;;;0.00;0.00;;;;;15.51;67.29;100686.59;6089942;23;45349;-76
2021/08/08 05:24:22;;;;;;;;;0.00;0.00;;;;;15.56;66.98;100692.63;6090461;23;45331;-76
2021/08/08 05:26:48;;;;;;;;;0.00;0.00;;;;;15.56;66.98;100686.53;6090155;23;45282;-76
2021/08/08 05:29:13;;;;;;;;;0.00;0.00;;;;;15.52;66.85;100669.06;6090114;23;46131;-76
2021/08/08 05:31:40;;;;;;;;;0.00;0.00;;;;;15.58;66.78;100672.50;6089590;23;45376;-76
2021/08/08 05:34:06;;;;;;;;;0.00;0.00;;;;;15.66;66.34;100684.66;6090404;23;45302;-76
2021/08/08 05:36:31;;;;;;;;;0.00;0.00;;;;;15.71;66.64;100683.69;6090596;23;45396;-76
2021/08/08 05:38:58;;;;;;;;;0.00;0.00;;;;;15.61;66.22;100661.09;6089822;23;48811;-76
2021/08/08 05:41:23;;;;;;;;;0.00;0.00;;;;;15.82;66.34;100688.81;6089225;23;45753;-76
2021/08/08 05:43:49;;;;;;;;;0.00;0.00;;;;;15.81;65.95;100694.91;6089215;23;45540;-76
2021/08/08 05:46:14;;;;;;;;;0.00;0.00;;;;;15.79;66.03;100682.72;6090067;23;45336;-76
2021/08/08 05:48:39;;;;;;;;;0.25;0.25;;;;;15.75;66.06;100678.41;6089239;23;45836;-76
2021/08/08 05:51:05;;;;;;;;;0.00;0.00;;;;;15.68;66.13;100673.22;6089892;23;45387;-76
2021/08/08 05:53:30;;;;;;;;;0.00;0.00;;;;;15.76;66.41;100682.75;6089573;23;53390;-76
2021/08/08 05:55:55;;;;;;;;;1.00;1.00;;;;;15.68;65.94;100664.53;6089958;23;45338;-76
2021/08/08 05:58:21;;;;;;;;;0.00;0.00;;;;;15.77;65.97;100677.50;6087606;23;48352;-76
2021/08/08 06:00:46;;;;;;;;;0.25;0.00;;;;;15.68;66.08;100688.13;6087090;23;55946;-76
2021/08/08 06:03:12;;;;;;;;;0.00;0.00;;;;;15.79;65.95;100691.47;6088922;23;45356;-77
2021/08/08 06:05:38;;;;;;;;;0.00;0.00;;;;;15.83;66.00;100682.66;6090003;23;45315;-74
2021/08/08 06:08:04;;;;;;;;;0.00;0.00;;;;;16.01;65.57;100706.06;6087676;23;46989;-75
2021/08/08 06:10:30;;;;;;;;;0.25;0.25;;;;;15.88;65.50;100698.34;6087562;23;45336;-76
2021/08/08 06:12:55;;;;;;;;;0.00;0.00;;;;;15.89;65.50;100709.72;6089763;23;45248;-76
2021/08/08 06:15:21;;;;;;;;;0.00;0.00;;;;;15.95;65.74;100721.00;6090069;23;45451;-76
2021/08/08 06:17:46;;;;;;;;;0.00;0.00;;;;;15.96;65.99;100695.66;6089697;23;46070;-76
2021/08/08 06:20:11;;;;;;;;;0.00;0.00;;;;;16.06;65.25;100701.63;6089281;23;45282;-76
2021/08/08 06:22:37;;;;;;;;;0.00;0.00;;;;;16.03;65.58;100702.53;6088300;23;45595;-76
2021/08/08 06:25:03;;;;;;;;;0.00;0.00;;;;;16.24;65.01;100708.38;6089168;23;45353;-76
2021/08/08 06:27:28;;;;;;;;;0.00;0.00;;;;;16.20;64.85;100707.53;6086528;23;47226;-76
2021/08/08 06:29:53;;;;;;;;;0.00;0.00;;;;;16.06;64.75;100686.75;6088859;23;45347;-75
2021/08/08 06:32:19;;;;;;;;;0.00;0.00;;;;;16.10;64.71;100711.19;6089788;23;45420;-75
2021/08/08 06:34:44;;;;;;;;;0.00;0.00;;;;;15.78;64.99;100666.13;6089044;23;53381;-76
2021/08/08 06:37:09;;;;;;;;;1.00;0.00;;;;;15.98;64.96;100727.13;6089197;23;46309;-76
2021/08/08 06:39:35;;;;;;;;;0.00;0.00;;;;;15.90;64.93;100712.28;6089060;23;45230;-75
2021/08/08 06:42:00;;;;;;;;;0.00;0.00;;;;;15.74;64.99;100695.91;6089591;23;45387;-75
2021/08/08 06:44:28;;;;;;;;;0.00;0.00;;;;;16.00;64.74;100734.09;6089469;23;49089;-75
2021/08/08 06:46:53;;;;;;;;;0.00;0.00;;;;;15.94;64.69;100726.25;6086812;23;48245;-75
2021/08/08 06:49:19;;;;;;;;;0.00;0.00;;;;;16.02;64.76;100732.28;6088863;23;45320;-75
2021/08/08 06:51:44;;;;;;;;;0.00;0.00;;;;;16.01;64.74;100729.69;6086322;23;45363;-75
2021/08/08 06:54:12;;;;;;;;;0.00;0.00;;;;;16.17;64.46;100733.84;6086843;23;50799;-75
2021/08/08 06:56:37;;;;;;;;;0.00;0.00;;;;;16.21;64.06;100738.13;6087794;23;45364;-75
2021/08/08 06:59:02;;;;;;;;;0.00;0.00;;;;;16.20;64.55;100738.16;6087896;23;45312;-75
2021/08/08 07:01:27;;;;;;;;;0.00;0.00;;;;;16.20;64.24;100728.53;6086310;23;45381;-74
2021/08/08 07:03:53;;;;;;;;;0.00;0.00;;;;;16.20;63.96;100723.28;6086302;23;48459;-76
2021/08/08 07:06:18;;;;;;;;;0.00;0.00;;;;;16.34;63.52;100744.09;6088082;23;46704;-75
2021/08/08 07:08:43;;;;;;;;;0.00;0.00;;;;;16.48;63.37;100747.41;6087488;23;45400;-75
2021/08/08 07:11:09;;;;;;;;;0.00;0.00;;;;;16.51;63.38;100749.97;6088188;23;45258;-75
2021/08/08 07:13:38;;;;;;;;;0.00;0.00;;;;;16.48;63.14;100757.91;6087329;23;45407;-75
2021/08/08 07:16:03;;;;;;;;;0.00;0.00;;;;;16.55;63.22;100762.16;6088140;23;45930;-74
2021/08/08 07:18:29;;;;;;;;;0.00;0.00;;;;;16.69;63.38;100744.41;6085233;23;45819;-75
2021/08/08 07:20:54;;;;;;;;;0.00;0.00;;;;;16.85;63.13;100754.69;6087585;23;49041;-74
2021/08/08 07:23:19;;;;;;;;;0.00;0.00;;;;;16.95;61.96;100758.00;6088527;23;56722;-75
2021/08/08 07:25:44;;;;;;;;;0.00;0.00;;;;;16.87;62.04;100754.66;6088698;23;54154;-75
2021/08/08 07:28:10;;;;;;;;;0.00;0.00;;;;;16.85;62.29;100757.31;6086087;23;59551;-75
2021/08/08 07:30:36;;;;;;;;;0.00;0.00;;;;;17.06;62.13;100765.72;6088366;23;45355;-78
2021/08/08 07:33:02;;;;;;;;;0.00;0.00;;;;;17.12;62.15;100780.53;6088245;23;45323;-79
2021/08/08 07:35:27;;;;;;;;;0.00;0.00;;;;;16.99;61.73;100756.19;6088117;23;45390;-78
2021/08/08 07:37:52;;;;;;;;;0.00;0.00;;;;;17.10;61.75;100777.94;6088042;23;45372;-80
2021/08/08 07:40:18;;;;;;;;;0.00;0.00;;;;;16.91;61.24;100754.53;6088432;23;45325;-79
2021/08/08 07:42:48;;;;;;;;;0.00;0.00;;;;;16.93;60.82;100767.66;6086594;23;45351;-78
2021/08/08 07:45:14;;;;;;;;;0.00;0.00;;;;;16.97;61.26;100783.38;6088372;23;45423;-79
2021/08/08 07:47:39;;;;;;;;;0.00;0.00;;;;;16.92;61.17;100777.34;6088387;23;45832;-78
2021/08/08 07:50:05;;;;;;;;;2.00;0.00;;;;;16.68;60.99;100745.31;6087750;23;57813;-77
2021/08/08 07:52:30;;;;;;;;;0.00;0.00;;;;;16.99;61.18;100787.75;6087946;23;45385;-79
2021/08/08 07:54:56;;;;;;;;;1.00;0.00;;;;;17.01;61.24;100785.94;6087660;23;46379;-79
2021/08/08 07:57:21;;;;;;;;;0.00;0.00;;;;;17.06;61.15;100790.25;6088228;23;45586;-78
2021/08/08 07:59:47;;;;;;;;;0.00;0.00;;;;;17.11;60.88;100792.81;6088418;23;45378;-79
2021/08/08 08:02:12;;;;;;;;;0.00;0.00;;;;;16.76;60.80;100745.19;6086479;23;45510;-79
2021/08/08 08:04:37;;;;;;;;;0.00;0.00;;;;;17.09;60.38;100800.72;6087760;23;46246;-77
2021/08/08 08:07:03;;;;;;;;;0.00;0.00;;;;;17.07;59.99;100792.00;6087583;23;48928;-76
2021/08/08 08:09:28;;;;;;;;;0.00;0.00;;;;;17.01;60.28;100789.47;6088665;23;45328;-78
2021/08/08 08:11:53;;;;;;;;;0.00;0.00;;;;;16.97;60.02;100804.41;6086572;23;45480;-78
2021/08/08 08:14:19;;;;;;;;;0.00;0.00;;;;;16.95;60.62;100798.31;6088271;23;45786;-76
2021/08/08 08:16:44;;;;;;;;;0.00;0.00;;;;;16.90;60.88;100801.91;6087619;23;48077;-76
2021/08/08 08:19:09;;;;;;;;;0.00;0.00;;;;;16.95;60.69;100821.09;6088661;23;45324;-77
2021/08/08 08:21:34;;;;;;;;;0.00;0.00;;;;;16.98;60.58;100807.91;6087129;23;45381;-78
2021/08/08 08:24:00;;;;;;;;;0.00;0.00;;;;;17.05;59.79;100814.78;6087641;23;46346;-77
2021/08/08 08:26:25;;;;;;;;;0.00;0.00;;;;;17.03;59.94;100799.94;6088133;23;47641;-76
2021/08/08 08:28:50;;;;;;;;;0.00;0.00;;;;;17.16;59.42;100796.25;6088737;23;45302;-77
2021/08/08 08:31:16;;;;;;;;;0.00;0.00;;;;;17.41;59.25;100819.47;6088197;23;45274;-77
2021/08/08 08:33:41;;;;;;;;;0.00;0.00;;;;;17.41;59.00;100821.22;6088245;23;50591;-76
2021/08/08 08:36:06;;;;;;;;;0.00;0.00;;;;;17.43;58.72;100822.06;6087385;23;52571;-76
2021/08/08 08:38:32;;;;;;;;;0.00;0.00;;;;;17.26;59.08;100801.31;6088668;23;45301;-77
2021/08/08 08:40:57;;;;;;;;;0.75;0.00;;;;;17.33;59.78;100818.72;6088878;23;45306;-77
2021/08/08 08:43:25;;;;;;;;;0.00;0.00;;;;;17.35;58.79;100822.19;6088043;23;46027;-77
2021/08/08 08:45:52;;;;;;;;;0.00;0.00;;;;;17.43;58.98;100829.97;6088068;23;45353;-77
2021/08/08 08:48:18;;;;;;;;;0.00;0.00;;;;;17.45;58.94;100821.13;6087806;23;45376;-77
2021/08/08 08:50:48;;;;;;;;;0.00;0.00;;;;;17.54;59.04;100827.97;6088223;23;45351;-77
2021/08/08 08:53:14;;;;;;;;;0.75;0.00;;;;;17.68;59.09;100835.63;6088211;23;45302;-77
2021/08/08 08:55:40;;;;;;;;;0.75;0.50;;;;;17.58;58.63;100813.03;6086746;23;46320;-77
2021/08/08 08:58:05;;;;;;;;;0.00;0.00;;;;;17.71;58.19;100848.69;6087862;23;52772;-77
2021/08/08 09:00:30;;;;;;;;;0.00;0.00;;;;;17.49;57.97;100824.59;6088213;23;45321;-77
2021/08/08 09:02:56;;;;;;;;;0.00;0.00;;;;;17.69;58.49;100844.38;6088371;23;46122;-77
2021/08/08 09:05:22;;;;;;;;;0.00;0.00;;;;;17.90;57.71;100842.22;6088418;23;45242;-76
2021/08/08 09:07:47;;;;;;;;;0.00;0.00;;;;;17.72;57.68;100818.88;6088816;23;45262;-76
2021/08/08 09:10:14;;;;;;;;;0.00;0.00;;;;;17.96;57.65;100858.78;6088484;23;45419;-76
2021/08/08 09:12:39;;;;;;;;;0.00;0.00;;;;;18.00;57.31;100856.09;6088123;23;46028;-76
2021/08/08 09:15:06;;;;;;;;;0.00;0.00;;;;;17.86;57.45;100831.75;6088243;23;45418;-76
2021/08/08 09:17:39;;;;;;;;;0.00;0.00;;;;;17.97;57.25;100823.63;6088773;23;45313;-76
2021/08/08 09:20:10;;;;;;;;;0.00;0.00;;;;;18.18;56.52;100845.19;6088134;23;45249;-77
2021/08/08 09:22:40;;;;;;;;;0.00;0.00;;;;;18.40;55.66;100851.75;6088151;23;45425;-76
2021/08/08 09:25:09;;;;;;;;;0.00;0.00;;;;;18.46;55.19;100854.22;6087723;23;45291;-76
2021/08/08 09:27:38;;;;;;;;;0.00;0.00;;;;;18.40;55.72;100855.22;6088076;23;45299;-77
2021/08/08 09:30:15;;;;;;;;;0.00;0.00;;;;;18.45;55.39;100860.41;6088459;23;45342;-77
2021/08/08 09:32:41;;;;;;;;;3.00;0.00;;;;;18.49;54.64;100840.97;6086224;23;47117;-77
2021/08/08 09:35:09;;;;;;;;;0.00;0.00;;;;;18.49;53.88;100841.84;6085520;23;47329;-76
2021/08/08 09:37:35;;;;;;;;;0.00;0.00;;;;;18.49;53.40;100839.22;6087691;23;45170;-77
2021/08/08 09:40:00;;;;;;;;;0.00;0.00;;;;;18.47;53.51;100843.66;6088460;23;45243;-76
2021/08/08 09:42:29;;;;;;;;;0.00;0.00;;;;;18.60;53.98;100865.34;6088303;23;45378;-77
2021/08/08 09:45:05;;;;;;;;;0.00;0.00;;;;;18.75;54.08;100865.88;6087916;23;45364;-78
2021/08/08 09:47:36;;;;;;;;;0.00;0.00;;;;;18.88;53.67;100853.25;6087856;23;45527;-75
2021/08/08 09:50:05;;;;;;;;;0.00;0.00;;;;;18.84;52.91;100862.16;6088185;23;45309;-76
2021/08/08 09:52:32;;;;;;;;;0.00;0.00;;;;;18.87;53.68;100857.66;6088005;23;45439;-76
2021/08/08 09:54:57;;;;;;;;;0.00;0.00;;;;;18.92;53.53;100854.91;6087870;23;45352;-77
2021/08/08 09:57:23;;;;;;;;;0.00;0.00;;;;;19.07;53.02;100853.72;6087828;23;45376;-79
2021/08/08 09:59:50;;;;;;;;;0.00;0.00;;;;;19.08;52.06;100878.34;6089799;23;45381;-78
2021/08/08 10:02:20;;;;;;;;;0.00;0.00;;;;;18.92;51.65;100878.66;6089748;23;45225;-77
2021/08/08 10:04:48;;;;;;;;;0.00;0.00;;;;;18.79;52.23;100871.94;6089494;23;45409;-79
2021/08/08 10:07:16;;;;;;;;;0.00;0.00;;;;;18.86;52.33;100878.78;6089541;23;45310;-80
2021/08/08 10:09:46;;;;;;;;;0.00;0.00;;;;;18.79;52.37;100864.91;6089724;23;45362;-80
2021/08/08 10:12:48;;;;;;;;;0.50;0.00;;;;;19.01;51.87;100869.66;6089401;23;46522;-79
2021/08/08 10:15:14;;;;;;;;;0.25;0.25;;;;;19.05;52.88;100871.31;6087889;23;45290;-80
2021/08/08 10:17:42;;;;;;;;;1.00;0.00;;;;;19.36;51.02;100881.09;6089500;23;45605;-77
2021/08/08 10:20:08;;;;;;;;;1.00;1.00;;;;;19.57;51.19;100880.59;6088072;23;45520;-76
2021/08/08 10:22:37;;;;;;;;;0.00;0.00;;;;;19.69;50.62;100889.97;6089325;23;45925;-78
2021/08/08 10:25:03;;;;;;;;;0.00;0.00;;;;;19.54;50.16;100878.03;6087400;23;45373;-77
2021/08/08 10:27:30;;;;;;;;;0.00;0.00;;;;;19.47;50.23;100877.31;6089102;23;45435;-80
2021/08/08 10:29:57;;;;;;;;;0.00;0.00;;;;;19.47;49.88;100879.97;6087987;23;45283;-79
2021/08/08 10:32:27;;;;;;;;;0.00;0.00;;;;;19.32;50.27;100879.47;6087046;23;47264;-77
2021/08/08 10:34:53;;;;;;;;;0.00;0.00;;;;;19.33;50.04;100878.53;6086152;23;45315;-78
2021/08/08 10:37:22;;;;;;;;;0.00;0.00;;;;;19.11;49.19;100865.91;6088672;23;45365;-78
2021/08/08 10:39:47;;;;;;;;;0.00;0.00;;;;;18.99;49.77;100885.50;6087170;23;45404;-78
2021/08/08 10:42:13;;;;;;;;;0.75;0.75;;;;;18.87;50.77;100893.75;6088876;23;45352;-78
2021/08/08 10:44:54;;;;;;;;;0.00;0.00;;;;;18.81;51.40;100896.50;6089555;23;45298;-75
2021/08/08 10:47:31;;;;;;;;;0.00;0.00;;;;;18.87;51.89;100899.00;6086473;23;45365;-75
2021/08/08 10:50:10;;;;;;;;;0.00;0.00;;;;;18.88;51.95;100887.56;6086838;23;45346;-76
2021/08/08 10:52:42;;;;;;;;;0.00;0.00;;;;;18.92;52.04;100891.84;6088933;23;46098;-78
2021/08/08 10:55:19;;;;;;;;;0.00;0.00;;;;;19.14;52.07;100885.22;6088997;23;45359;-78
2021/08/08 10:57:45;;;;;;;;;0.00;0.00;;;;;19.26;52.09;100863.78;6087305;23;45339;-77
2021/08/08 11:00:14;;;;;;;;;0.00;0.00;;;;;19.29;51.75;100881.34;6089461;23;45274;-79
2021/08/08 11:02:44;;;;;;;;;0.00;0.00;;;;;19.36;51.05;100881.09;6089309;23;45424;-74
2021/08/08 11:05:19;;;;;;;;;0.00;0.00;;;;;19.41;51.27;100883.63;6086383;23;46042;-75
2021/08/08 11:07:46;;;;;;;;;0.00;0.00;;;;;19.42;50.60;100882.72;6088817;23;45220;-77
2021/08/08 11:10:23;;;;;;;;;0.00;0.00;;;;;19.33;50.66;100870.63;6088981;23;45304;-75
2021/08/08 11:12:48;;;;;;;;;0.00;0.00;;;;;19.46;49.42;100884.41;6088575;23;46636;-75
2021/08/08 11:15:14;;;;;;;;;0.00;0.00;;;;;19.51;49.36;100873.72;6087822;23;45388;-78
2021/08/08 11:17:41;;;;;;;;;0.00;0.00;;;;;19.66;49.28;100877.69;6088058;23;52878;-75
2021/08/08 11:20:07;;;;;;;;;0.00;0.00;;;;;19.72;48.75;100879.28;6088902;23;45425;-80